createdAt,value
2019-03-23T00:00:36.046Z,1008.01
2019-03-23T00:01:36.070Z,1007.97
2019-03-23T00:02:36.098Z,1007.99
2019-03-23T00:03:36.124Z,1008.01
2019-03-23T00:04:36.153Z,1008.01
2019-03-23T00:05:36.177Z,1008.00
2019-03-23T00:06:36.205Z,1008.05
2019-03-23T00:07:36.231Z,1008.03
2019-03-23T00:08:36.258Z,1008.05
2019-03-23T00:09:36.285Z,1008.09
2019-03-23T00:10:36.311Z,1008.06
2019-03-23T00:11:36.344Z,1008.04
2019-03-23T00:12:36.367Z,1008.03
2019-03-23T00:13:36.393Z,1008.02
2019-03-23T00:14:36.420Z,1008.01
2019-03-23T00:15:36.447Z,1007.95
2019-03-23T00:16:36.475Z,1007.99
2019-03-23T00:17:36.500Z,1008.00
2019-03-23T00:18:36.528Z,1007.98
2019-03-23T00:19:36.559Z,1008.00
2019-03-23T00:20:36.579Z,1008.06
2019-03-23T00:21:36.605Z,1008.07
2019-03-23T00:22:36.633Z,1008.05
2019-03-23T00:23:36.659Z,1008.06
2019-03-23T00:24:36.687Z,1008.08
2019-03-23T00:25:36.712Z,1008.09
2019-03-23T00:26:36.739Z,1008.10
2019-03-23T00:27:36.766Z,1008.09
2019-03-23T00:28:36.796Z,1008.09
2019-03-23T00:29:36.818Z,1008.06
2019-03-23T00:30:36.845Z,1008.10
2019-03-23T00:31:36.876Z,1008.07
2019-03-23T00:32:36.899Z,1008.07
2019-03-23T00:33:36.926Z,1008.09
2019-03-23T00:34:36.954Z,1008.09
2019-03-23T00:35:36.978Z,1008.09
2019-03-23T00:36:41.407Z,1008.07
2019-03-23T00:37:37.034Z,1008.07
2019-03-23T00:38:37.109Z,1008.01
2019-03-23T00:39:37.085Z,1008.06
2019-03-23T00:40:37.113Z,1008.09
2019-03-23T00:41:37.138Z,1008.04
2019-03-23T00:42:37.164Z,1008.09
2019-03-23T00:43:37.193Z,1008.09
2019-03-23T00:44:37.218Z,1008.09
2019-03-23T00:45:37.245Z,1008.06
2019-03-23T00:46:37.273Z,1008.05
2019-03-23T00:47:37.298Z,1008.09
2019-03-23T00:48:37.327Z,1008.08
2019-03-23T00:49:37.351Z,1008.06
2019-03-23T00:50:37.379Z,1008.08
2019-03-23T00:51:37.404Z,1008.09
2019-03-23T00:52:37.433Z,1008.08
2019-03-23T00:53:37.458Z,1008.11
2019-03-23T00:54:37.486Z,1008.07
2019-03-23T00:55:37.512Z,1008.06
2019-03-23T00:56:37.538Z,1008.08
2019-03-23T00:57:37.563Z,1008.09
2019-03-23T00:58:37.592Z,1008.06
2019-03-23T00:59:37.617Z,1008.07
2019-03-23T01:00:37.644Z,1008.04
2019-03-23T01:01:37.670Z,1008.07
2019-03-23T01:02:37.699Z,1008.09
2019-03-23T01:03:37.723Z,1008.04
2019-03-23T01:04:37.750Z,1008.09
2019-03-23T01:05:37.777Z,1008.07
2019-03-23T01:06:37.803Z,1008.11
2019-03-23T01:07:37.829Z,1008.06
2019-03-23T01:08:37.858Z,1008.07
2019-03-23T01:09:37.882Z,1008.02
2019-03-23T01:10:37.908Z,1008.02
2019-03-23T01:11:37.936Z,1008.09
2019-03-23T01:12:37.963Z,1008.04
2019-03-23T01:13:37.989Z,1008.03
2019-03-23T01:14:38.016Z,1008.03
2019-03-23T01:15:38.041Z,1008.01
2019-03-23T01:16:38.068Z,1007.97
2019-03-23T01:17:38.096Z,1007.97
2019-03-23T01:18:38.124Z,1007.99
2019-03-23T01:19:38.147Z,1007.93
2019-03-23T01:20:38.174Z,1007.94
2019-03-23T01:21:38.200Z,1007.90
2019-03-23T01:22:38.227Z,1007.96
2019-03-23T01:23:38.254Z,1007.97
2019-03-23T01:24:38.284Z,1007.96
2019-03-23T01:25:38.307Z,1007.95
2019-03-23T01:26:38.334Z,1007.96
2019-03-23T01:27:38.366Z,1007.96
2019-03-23T01:28:38.387Z,1007.96
2019-03-23T01:29:38.413Z,1007.98
2019-03-23T01:30:38.439Z,1007.94
2019-03-23T01:31:38.471Z,1007.99
2019-03-23T01:32:38.492Z,1007.96
2019-03-23T01:33:38.517Z,1007.99
2019-03-23T01:34:38.545Z,1008.00
2019-03-23T01:35:38.571Z,1007.99
2019-03-23T01:36:38.597Z,1007.96
2019-03-23T01:37:38.623Z,1007.96
2019-03-23T01:38:38.649Z,1007.97
2019-03-23T01:39:38.676Z,1007.97
2019-03-23T01:40:38.704Z,1008.01
2019-03-23T01:41:38.728Z,1007.98
2019-03-23T01:42:38.755Z,1007.92
2019-03-23T01:43:38.781Z,1007.95
2019-03-23T01:44:38.808Z,1007.95
2019-03-23T01:45:38.834Z,1007.94
2019-03-23T01:46:38.862Z,1007.93
2019-03-23T01:47:38.888Z,1007.90
2019-03-23T01:48:38.914Z,1007.87
2019-03-23T01:49:38.941Z,1007.93
2019-03-23T01:50:38.966Z,1007.92
2019-03-23T01:51:38.992Z,1007.89
2019-03-23T01:52:39.022Z,1007.91
2019-03-23T01:53:39.045Z,1007.92
2019-03-23T01:54:39.071Z,1007.94
2019-03-23T01:55:39.098Z,1007.93
2019-03-23T01:56:39.125Z,1007.97
2019-03-23T01:57:39.149Z,1008.02
2019-03-23T01:58:39.176Z,1008.02
2019-03-23T01:59:39.202Z,1008.04
2019-03-23T02:00:39.256Z,1008.00
2019-03-23T02:01:39.255Z,1008.02
2019-03-23T02:02:39.281Z,1008.04
2019-03-23T02:03:39.307Z,1008.00
2019-03-23T02:04:39.335Z,1008.01
2019-03-23T02:05:39.359Z,1008.01
2019-03-23T02:06:39.386Z,1007.95
2019-03-23T02:07:39.412Z,1007.98
2019-03-23T02:08:39.439Z,1007.97
2019-03-23T02:09:39.464Z,1007.98
2019-03-23T02:10:41.788Z,1007.94
2019-03-23T02:11:39.517Z,1007.97
2019-03-23T02:12:39.544Z,1007.96
2019-03-23T02:13:39.570Z,1007.99
2019-03-23T02:14:39.597Z,1007.99
2019-03-23T02:15:39.623Z,1007.96
2019-03-23T02:16:39.648Z,1007.95
2019-03-23T02:17:39.675Z,1007.97
2019-03-23T02:18:39.700Z,1007.96
2019-03-23T02:19:39.729Z,1008.00
2019-03-23T02:20:39.758Z,1008.01
2019-03-23T02:21:39.778Z,1007.94
2019-03-23T02:22:39.803Z,1007.96
2019-03-23T02:23:39.832Z,1008.01
2019-03-23T02:24:39.857Z,1008.03
2019-03-23T02:25:39.884Z,1008.01
2019-03-23T02:26:39.909Z,1008.02
2019-03-23T02:27:39.937Z,1008.05
2019-03-23T02:28:39.961Z,1007.98
2019-03-23T02:29:39.988Z,1008.05
2019-03-23T02:30:40.027Z,1008.03
2019-03-23T02:31:40.044Z,1008.02
2019-03-23T02:32:40.071Z,1008.02
2019-03-23T02:33:40.201Z,1008.01
2019-03-23T02:34:40.116Z,1007.99
2019-03-23T02:35:40.146Z,1008.02
2019-03-23T02:36:40.180Z,1008.05
2019-03-23T02:37:40.199Z,1008.03
2019-03-23T02:38:40.223Z,1007.98
2019-03-23T02:39:40.250Z,1008.03
2019-03-23T02:40:40.276Z,1007.98
2019-03-23T02:41:40.299Z,1008.00
2019-03-23T02:42:40.384Z,1008.03
2019-03-23T02:43:40.353Z,1007.98
2019-03-23T02:44:40.384Z,1007.99
2019-03-23T02:45:40.407Z,1007.97
2019-03-23T02:46:40.435Z,1007.99
2019-03-23T02:47:40.565Z,1007.99
2019-03-23T02:48:40.489Z,1008.01
2019-03-23T02:49:40.518Z,1007.96
2019-03-23T02:50:40.538Z,1008.00
2019-03-23T02:51:40.562Z,1007.97
2019-03-23T02:52:40.589Z,1007.98
2019-03-23T02:53:40.613Z,1007.97
2019-03-23T02:54:40.787Z,1008.00
2019-03-23T02:55:40.667Z,1007.96
2019-03-23T02:56:40.691Z,1008.03
2019-03-23T02:57:40.716Z,1008.00
2019-03-23T02:58:40.746Z,1008.04
2019-03-23T02:59:40.775Z,1007.99
2019-03-23T03:00:40.795Z,1008.03
2019-03-23T03:01:40.822Z,1008.01
2019-03-23T03:02:40.848Z,1008.07
2019-03-23T03:03:40.874Z,1008.02
2019-03-23T03:04:40.903Z,1008.04
2019-03-23T03:05:40.924Z,1008.08
2019-03-23T03:06:40.949Z,1008.04
2019-03-23T03:07:43.268Z,1008.06
2019-03-23T03:08:41.002Z,1008.13
2019-03-23T03:09:41.026Z,1008.10
2019-03-23T03:10:41.078Z,1008.14
2019-03-23T03:11:41.082Z,1008.14
2019-03-23T03:12:41.108Z,1008.12
2019-03-23T03:13:41.131Z,1008.09
2019-03-23T03:14:41.157Z,1008.12
2019-03-23T03:15:41.194Z,1008.08
2019-03-23T03:16:41.208Z,1008.10
2019-03-23T03:17:41.286Z,1008.09
2019-03-23T03:18:41.259Z,1008.10
2019-03-23T03:19:41.285Z,1008.13
2019-03-23T03:20:41.315Z,1008.07
2019-03-23T03:21:41.337Z,1008.03
2019-03-23T03:22:41.362Z,1008.08
2019-03-23T03:23:41.390Z,1008.12
2019-03-23T03:24:41.418Z,1008.06
2019-03-23T03:25:41.444Z,1008.07
2019-03-23T03:26:41.469Z,1008.08
2019-03-23T03:27:41.498Z,1008.08
2019-03-23T03:28:41.517Z,1008.07
2019-03-23T03:29:41.543Z,1008.03
2019-03-23T03:30:41.570Z,1008.01
2019-03-23T03:31:41.595Z,1008.07
2019-03-23T03:32:41.624Z,1008.04
2019-03-23T03:33:41.648Z,1008.04
2019-03-23T03:34:41.672Z,1008.01
2019-03-23T03:35:41.703Z,1007.99
2019-03-23T03:36:41.724Z,1008.05
2019-03-23T03:37:55.334Z,1008.03
2019-03-23T03:38:41.775Z,1008.04
2019-03-23T03:39:41.800Z,1008.07
2019-03-23T03:40:41.826Z,1008.05
2019-03-23T03:41:41.852Z,1008.04
2019-03-23T03:42:41.878Z,1008.03
2019-03-23T03:43:41.906Z,1008.02
2019-03-23T03:44:41.942Z,1008.00
2019-03-23T03:45:41.954Z,1007.99
2019-03-23T03:46:41.980Z,1007.96
2019-03-23T03:47:42.005Z,1007.99
2019-03-23T03:48:42.032Z,1008.00
2019-03-23T03:49:42.056Z,1008.01
2019-03-23T03:50:42.083Z,1007.98
2019-03-23T03:51:42.108Z,1007.98
2019-03-23T03:52:42.134Z,1007.97
2019-03-23T03:53:42.159Z,1007.98
2019-03-23T03:54:42.185Z,1007.96
2019-03-23T03:55:42.211Z,1007.94
2019-03-23T03:56:42.236Z,1007.95
2019-03-23T03:57:42.267Z,1007.94
2019-03-23T03:58:42.287Z,1007.89
2019-03-23T03:59:42.313Z,1007.93
2019-03-23T04:00:42.339Z,1007.91
2019-03-23T04:01:42.366Z,1007.88
2019-03-23T04:02:42.410Z,1007.87
2019-03-23T04:03:42.431Z,1007.93
2019-03-23T04:04:42.443Z,1007.87
2019-03-23T04:05:42.476Z,1007.85
2019-03-23T04:06:42.492Z,1007.88
2019-03-23T04:07:42.530Z,1007.89
2019-03-23T04:08:42.558Z,1007.87
2019-03-23T04:09:42.568Z,1007.87
2019-03-23T04:10:42.647Z,1007.88
2019-03-23T04:11:42.622Z,1007.91
2019-03-23T04:12:45.100Z,1007.85
2019-03-23T04:13:42.671Z,1007.87
2019-03-23T04:14:42.704Z,1007.87
2019-03-23T04:15:42.730Z,1007.89
2019-03-23T04:16:42.748Z,1007.88
2019-03-23T04:17:42.773Z,1007.87
2019-03-23T04:18:42.806Z,1007.86
2019-03-23T04:19:42.824Z,1007.84
2019-03-23T04:20:42.850Z,1007.82
2019-03-23T04:21:42.895Z,1007.84
2019-03-23T04:22:42.899Z,1007.82
2019-03-23T04:23:42.926Z,1007.81
2019-03-23T04:24:42.953Z,1007.77
2019-03-23T04:25:42.977Z,1007.86
2019-03-23T04:26:43.003Z,1007.82
2019-03-23T04:27:43.028Z,1007.84
2019-03-23T04:28:43.256Z,1007.82
2019-03-23T04:29:43.078Z,1007.80
2019-03-23T04:30:43.102Z,1007.79
2019-03-23T04:31:43.130Z,1007.79
2019-03-23T04:32:43.163Z,1007.81
2019-03-23T04:33:43.210Z,1007.75
2019-03-23T04:34:43.204Z,1007.82
2019-03-23T04:35:43.231Z,1007.75
2019-03-23T04:36:43.258Z,1007.79
2019-03-23T04:37:43.382Z,1007.79
2019-03-23T04:38:43.308Z,1007.79
2019-03-23T04:39:43.341Z,1007.81
2019-03-23T04:40:43.358Z,1007.83
2019-03-23T04:41:43.381Z,1007.80
2019-03-23T04:42:43.406Z,1007.80
2019-03-23T04:43:43.433Z,1007.79
2019-03-23T04:44:43.459Z,1007.77
2019-03-23T04:45:43.483Z,1007.83
2019-03-23T04:46:44.052Z,1007.86
2019-03-23T04:47:43.535Z,1007.87
2019-03-23T04:48:43.561Z,1007.82
2019-03-23T04:49:43.587Z,1007.85
2019-03-23T04:50:43.610Z,1007.89
2019-03-23T04:51:43.636Z,1007.86
2019-03-23T04:52:43.661Z,1007.85
2019-03-23T04:53:43.697Z,1007.87
2019-03-23T04:54:43.716Z,1007.86
2019-03-23T04:55:43.740Z,1007.85
2019-03-23T04:56:43.762Z,1007.85
2019-03-23T04:57:43.788Z,1007.83
2019-03-23T04:58:43.812Z,1007.84
2019-03-23T04:59:43.846Z,1007.82
2019-03-23T05:00:43.863Z,1007.88
2019-03-23T05:01:43.889Z,1007.85
2019-03-23T05:02:43.913Z,1007.82
2019-03-23T05:03:43.940Z,1007.86
2019-03-23T05:04:43.970Z,1007.84
2019-03-23T05:05:43.989Z,1007.80
2019-03-23T05:06:44.015Z,1007.84
2019-03-23T05:07:44.039Z,1007.74
2019-03-23T05:08:44.067Z,1007.79
2019-03-23T05:09:44.091Z,1007.82
2019-03-23T05:10:44.114Z,1007.82
2019-03-23T05:11:44.141Z,1007.87
2019-03-23T05:12:44.166Z,1007.85
2019-03-23T05:13:44.207Z,1007.87
2019-03-23T05:14:44.218Z,1007.86
2019-03-23T05:15:44.242Z,1007.94
2019-03-23T05:16:44.268Z,1007.89
2019-03-23T05:17:44.294Z,1007.92
2019-03-23T05:18:44.320Z,1007.88
2019-03-23T05:19:44.345Z,1007.91
2019-03-23T05:20:44.369Z,1007.83
2019-03-23T05:21:44.395Z,1007.84
2019-03-23T05:22:44.420Z,1007.87
2019-03-23T05:23:45.842Z,1007.90
2019-03-23T05:24:44.471Z,1007.89
2019-03-23T05:25:44.499Z,1007.92
2019-03-23T05:26:44.521Z,1007.94
2019-03-23T05:27:44.547Z,1007.96
2019-03-23T05:28:44.572Z,1007.97
2019-03-23T05:29:44.596Z,1007.95
2019-03-23T05:30:44.622Z,1007.94
2019-03-23T05:31:44.652Z,1007.97
2019-03-23T05:32:44.677Z,1008.04
2019-03-23T05:33:44.698Z,1008.05
2019-03-23T05:34:44.723Z,1008.04
2019-03-23T05:35:44.749Z,1008.07
2019-03-23T05:36:44.777Z,1008.08
2019-03-23T05:37:44.799Z,1008.08
2019-03-23T05:38:45.002Z,1008.12
2019-03-23T05:39:44.852Z,1008.12
2019-03-23T05:40:44.875Z,1008.10
2019-03-23T05:41:44.900Z,1008.12
2019-03-23T05:42:44.926Z,1008.16
2019-03-23T05:43:44.951Z,1008.15
2019-03-23T05:44:44.983Z,1008.17
2019-03-23T05:45:45.003Z,1008.16
2019-03-23T05:46:45.028Z,1008.13
2019-03-23T05:47:45.053Z,1008.18
2019-03-23T05:48:45.080Z,1008.15
2019-03-23T05:49:45.102Z,1008.17
2019-03-23T05:50:45.129Z,1008.13
2019-03-23T05:51:45.154Z,1008.13
2019-03-23T05:52:45.180Z,1008.11
2019-03-23T05:53:45.204Z,1008.14
2019-03-23T05:54:45.229Z,1008.14
2019-03-23T05:55:45.256Z,1008.13
2019-03-23T05:56:45.281Z,1008.15
2019-03-23T05:57:45.307Z,1008.17
2019-03-23T05:58:45.335Z,1008.17
2019-03-23T05:59:45.357Z,1008.20
2019-03-23T06:00:45.382Z,1008.16
2019-03-23T06:01:45.410Z,1008.21
2019-03-23T06:02:45.432Z,1008.25
2019-03-23T06:03:45.458Z,1008.25
2019-03-23T06:04:45.484Z,1008.22
2019-03-23T06:05:45.508Z,1008.19
2019-03-23T06:06:45.535Z,1008.22
2019-03-23T06:07:45.560Z,1008.21
2019-03-23T06:08:54.453Z,1008.23
2019-03-23T06:09:45.610Z,1008.17
2019-03-23T06:10:45.635Z,1008.21
2019-03-23T06:11:45.660Z,1008.23
2019-03-23T06:12:45.688Z,1008.25
2019-03-23T06:13:45.711Z,1008.26
2019-03-23T06:14:45.741Z,1008.22
2019-03-23T06:15:45.765Z,1008.28
2019-03-23T06:16:45.790Z,1008.29
2019-03-23T06:17:45.814Z,1008.26
2019-03-23T06:18:45.840Z,1008.23
2019-03-23T06:19:45.867Z,1008.20
2019-03-23T06:20:45.891Z,1008.25
2019-03-23T06:21:45.917Z,1008.31
2019-03-23T06:22:45.942Z,1008.33
2019-03-23T06:23:45.968Z,1008.35
2019-03-23T06:24:45.993Z,1008.35
2019-03-23T06:25:46.020Z,1008.33
2019-03-23T06:26:46.045Z,1008.36
2019-03-23T06:27:46.071Z,1008.33
2019-03-23T06:28:46.102Z,1008.37
2019-03-23T06:29:46.121Z,1008.37
2019-03-23T06:30:46.151Z,1008.43
2019-03-23T06:31:46.175Z,1008.34
2019-03-23T06:32:46.204Z,1008.41
2019-03-23T06:33:46.243Z,1008.42
2019-03-23T06:34:46.255Z,1008.39
2019-03-23T06:35:46.279Z,1008.43
2019-03-23T06:36:46.303Z,1008.48
2019-03-23T06:37:46.340Z,1008.48
2019-03-23T06:38:46.356Z,1008.48
2019-03-23T06:39:46.387Z,1008.43
2019-03-23T06:40:46.409Z,1008.42
2019-03-23T06:41:46.435Z,1008.40
2019-03-23T06:42:46.462Z,1008.44
2019-03-23T06:43:46.488Z,1008.48
2019-03-23T06:44:46.514Z,1008.52
2019-03-23T06:45:46.540Z,1008.47
2019-03-23T06:46:46.565Z,1008.43
2019-03-23T06:47:46.592Z,1008.45
2019-03-23T06:48:46.618Z,1008.46
2019-03-23T06:49:46.644Z,1008.48
2019-03-23T06:50:46.671Z,1008.45
2019-03-23T06:51:46.701Z,1008.46
2019-03-23T06:52:46.723Z,1008.44
2019-03-23T06:53:46.749Z,1008.46
2019-03-23T06:54:46.775Z,1008.41
2019-03-23T06:55:46.804Z,1008.41
2019-03-23T06:56:46.828Z,1008.45
2019-03-23T06:57:46.855Z,1008.45
2019-03-23T06:58:46.885Z,1008.41
2019-03-23T06:59:46.908Z,1008.41
2019-03-23T07:00:46.935Z,1008.39
2019-03-23T07:01:46.963Z,1008.38
2019-03-23T07:02:46.988Z,1008.34
2019-03-23T07:03:47.014Z,1008.33
2019-03-23T07:04:47.043Z,1008.38
2019-03-23T07:05:47.070Z,1008.35
2019-03-23T07:06:47.096Z,1008.36
2019-03-23T07:07:47.122Z,1008.37
2019-03-23T07:08:47.149Z,1008.38
2019-03-23T07:09:47.177Z,1008.42
2019-03-23T07:10:47.210Z,1008.38
2019-03-23T07:11:47.234Z,1008.39
2019-03-23T07:12:47.258Z,1008.39
2019-03-23T07:13:47.384Z,1008.40
2019-03-23T07:14:47.311Z,1008.41
2019-03-23T07:15:47.338Z,1008.36
2019-03-23T07:16:47.366Z,1008.42
2019-03-23T07:17:47.392Z,1008.43
2019-03-23T07:18:47.420Z,1008.39
2019-03-23T07:19:47.446Z,1008.33
2019-03-23T07:20:47.474Z,1008.36
2019-03-23T07:21:47.502Z,1008.35
2019-03-23T07:22:47.528Z,1008.39
2019-03-23T07:23:47.556Z,1008.41
2019-03-23T07:24:47.585Z,1008.44
2019-03-23T07:25:47.612Z,1008.46
2019-03-23T07:26:47.639Z,1008.47
2019-03-23T07:27:47.666Z,1008.46
2019-03-23T07:28:47.695Z,1008.48
2019-03-23T07:29:47.721Z,1008.46
2019-03-23T07:30:47.749Z,1008.52
2019-03-23T07:31:47.778Z,1008.51
2019-03-23T07:32:47.809Z,1008.56
2019-03-23T07:33:47.831Z,1008.53
2019-03-23T07:34:47.863Z,1008.54
2019-03-23T07:35:47.943Z,1008.53
2019-03-23T07:36:47.917Z,1008.52
2019-03-23T07:37:47.944Z,1008.51
2019-03-23T07:38:47.972Z,1008.53
2019-03-23T07:39:48.002Z,1008.54
2019-03-23T07:40:48.033Z,1008.52
2019-03-23T07:41:48.058Z,1008.52
2019-03-23T07:42:48.085Z,1008.50
2019-03-23T07:43:48.114Z,1008.45
2019-03-23T07:44:48.144Z,1008.48
2019-03-23T07:45:48.171Z,1008.45
2019-03-23T07:46:48.199Z,1008.48
2019-03-23T07:47:48.287Z,1008.51
2019-03-23T07:48:48.259Z,1008.49
2019-03-23T07:49:48.289Z,1008.49
2019-03-23T07:50:48.315Z,1008.54
2019-03-23T07:51:48.344Z,1008.51
2019-03-23T07:52:48.372Z,1008.52
2019-03-23T07:53:48.401Z,1008.54
2019-03-23T07:54:48.452Z,1008.56
2019-03-23T07:55:48.460Z,1008.51
2019-03-23T07:56:48.489Z,1008.55
2019-03-23T07:57:48.517Z,1008.57
2019-03-23T07:58:48.547Z,1008.56
2019-03-23T07:59:48.598Z,1008.56
2019-03-23T08:00:51.228Z,1008.54
2019-03-23T08:01:50.051Z,1008.56
2019-03-23T08:02:48.690Z,1008.55
2019-03-23T08:03:49.706Z,1008.54
2019-03-23T08:04:48.951Z,1008.56
2019-03-23T08:05:49.693Z,1008.57
2019-03-23T08:12:43.328Z,1008.55
2019-03-23T08:18:03.807Z,1008.51
2019-03-23T08:20:03.862Z,1008.46
2019-03-23T08:22:03.925Z,1008.40
2019-03-23T08:23:03.957Z,1008.42
2019-03-23T08:24:03.988Z,1008.45
2019-03-23T08:25:04.017Z,1008.40
2019-03-23T08:26:04.050Z,1008.44
2019-03-23T08:27:04.080Z,1008.44
2019-03-23T08:28:04.110Z,1008.41
2019-03-23T08:29:04.144Z,1008.43
2019-03-23T08:30:04.173Z,1008.43
2019-03-23T08:31:04.205Z,1008.42
2019-03-23T08:32:04.239Z,1008.41
2019-03-23T08:33:04.268Z,1008.41
2019-03-23T08:34:04.299Z,1008.38
2019-03-23T08:35:04.337Z,1008.38
2019-03-23T08:36:04.364Z,1008.38
2019-03-23T08:37:04.397Z,1008.36
2019-03-23T08:38:04.430Z,1008.38
2019-03-23T08:39:04.459Z,1008.39
2019-03-23T08:40:04.492Z,1008.36
2019-03-23T08:41:04.526Z,1008.37
2019-03-23T08:42:04.555Z,1008.35
2019-03-23T08:43:04.590Z,1008.37
2019-03-23T08:44:04.618Z,1008.40
2019-03-23T08:45:04.652Z,1008.38
2019-03-23T08:46:04.684Z,1008.39
2019-03-23T08:47:04.717Z,1008.42
2019-03-23T08:48:04.750Z,1008.42
2019-03-23T08:49:04.784Z,1008.38
2019-03-23T08:50:04.816Z,1008.39
2019-03-23T08:51:04.902Z,1008.38
2019-03-23T08:52:04.884Z,1008.42
2019-03-23T08:53:04.916Z,1008.42
2019-03-23T08:54:04.948Z,1008.36
2019-03-23T08:55:04.983Z,1008.42
2019-03-23T08:56:05.016Z,1008.42
2019-03-23T08:57:05.049Z,1008.43
2019-03-23T08:58:05.082Z,1008.40
2019-03-23T08:59:05.119Z,1008.45
2019-03-23T09:00:05.152Z,1008.53
2019-03-23T09:01:08.822Z,1008.62
2019-03-23T09:02:05.245Z,1008.64
2019-03-23T09:03:08.285Z,1008.72
2019-03-23T09:04:05.295Z,1008.70
2019-03-23T09:05:05.329Z,1008.72
2019-03-23T09:06:05.372Z,1008.69
2019-03-23T09:07:05.403Z,1008.70
2019-03-23T09:08:05.439Z,1008.70
2019-03-23T09:09:05.476Z,1008.70
2019-03-23T09:10:05.514Z,1008.76
2019-03-23T09:11:05.550Z,1008.72
2019-03-23T09:12:05.587Z,1008.78
2019-03-23T09:13:05.626Z,1008.72
2019-03-23T09:14:05.664Z,1008.80
2019-03-23T09:15:05.703Z,1008.73
2019-03-23T09:16:05.740Z,1008.79
2019-03-23T09:17:05.800Z,1008.75
2019-03-23T09:18:05.840Z,1008.78
2019-03-23T09:19:05.861Z,1008.82
2019-03-23T09:20:05.896Z,1008.80
2019-03-23T09:22:05.979Z,1008.79
2019-03-23T09:23:06.017Z,1008.83
2019-03-23T09:24:06.056Z,1008.82
2019-03-23T09:25:06.095Z,1008.83
2019-03-23T09:26:06.138Z,1008.80
2019-03-23T09:28:06.217Z,1008.83
2019-03-23T09:29:06.258Z,1008.82
2019-03-23T09:30:06.576Z,1008.84
2019-03-23T09:31:06.543Z,1008.83
2019-03-23T09:33:06.427Z,1008.84
2019-03-23T09:34:06.464Z,1008.86
2019-03-23T09:35:06.730Z,1008.88
2019-03-23T09:36:06.549Z,1008.87
2019-03-23T09:37:06.591Z,1008.89
2019-03-23T09:38:09.257Z,1008.86
2019-03-23T09:39:06.680Z,1008.88
2019-03-23T09:40:10.964Z,1008.87
2019-03-23T09:42:07.163Z,1008.86
2019-03-23T09:43:06.847Z,1008.85
2019-03-23T09:44:07.114Z,1008.88
2019-03-23T09:45:06.933Z,1008.82
2019-03-23T09:46:06.975Z,1008.85
2019-03-23T09:47:07.042Z,1008.85
2019-03-23T09:48:07.063Z,1008.86
2019-03-23T09:49:07.108Z,1008.85
2019-03-23T09:50:07.179Z,1008.84
2019-03-23T09:51:07.193Z,1008.80
2019-03-23T09:52:07.237Z,1008.78
2019-03-23T09:53:07.280Z,1008.82
2019-03-23T09:54:07.326Z,1008.79
2019-03-23T09:55:07.393Z,1008.84
2019-03-23T09:56:07.414Z,1008.82
2019-03-23T09:57:07.457Z,1008.80
2019-03-23T09:58:07.502Z,1008.82
2019-03-23T09:59:07.547Z,1008.85
2019-03-23T10:01:55.210Z,1008.82
2019-03-23T10:03:58.930Z,1008.83
2019-03-23T10:04:55.363Z,1008.80
2019-03-23T10:08:59.361Z,1008.88
2019-03-23T10:09:55.592Z,1008.86
2019-03-23T10:10:55.641Z,1008.86
2019-03-23T10:12:55.705Z,1008.83
2019-03-23T10:13:55.755Z,1008.80
2019-03-23T10:14:55.801Z,1008.81
2019-03-23T10:15:55.846Z,1008.80
2019-03-23T10:16:55.890Z,1008.81
2019-03-23T10:17:55.938Z,1008.80
2019-03-23T10:18:56.007Z,1008.84
2019-03-23T10:19:56.256Z,1008.80
2019-03-23T10:20:56.076Z,1008.81
2019-03-23T10:21:56.149Z,1008.85
2019-03-23T10:22:56.192Z,1008.79
2019-03-23T10:23:56.217Z,1008.78
2019-03-23T10:24:56.263Z,1008.78
2019-03-23T10:25:56.310Z,1008.82
2019-03-23T10:26:56.360Z,1008.79
2019-03-23T10:27:56.409Z,1008.75
2019-03-23T10:28:56.452Z,1008.77
2019-03-23T10:29:56.501Z,1008.79
2019-03-23T10:30:56.548Z,1008.75
2019-03-23T10:31:56.594Z,1008.80
2019-03-23T10:32:56.644Z,1008.81
2019-03-23T10:33:56.693Z,1008.80
2019-03-23T10:34:56.739Z,1008.74
2019-03-23T10:35:56.789Z,1008.80
2019-03-23T10:36:56.834Z,1008.81
2019-03-23T10:37:56.883Z,1008.85
2019-03-23T10:38:56.931Z,1008.87
2019-03-23T10:39:56.980Z,1008.85
2019-03-23T10:40:57.027Z,1008.84
2019-03-23T10:41:57.075Z,1008.88
2019-03-23T10:42:57.125Z,1008.87
2019-03-23T10:43:57.172Z,1008.87
2019-03-23T10:44:57.222Z,1008.85
2019-03-23T10:45:57.271Z,1008.87
2019-03-23T10:46:57.319Z,1008.84
2019-03-23T10:48:57.417Z,1008.91
2019-03-23T10:49:57.467Z,1008.90
2019-03-23T10:50:57.515Z,1008.94
2019-03-23T10:51:57.563Z,1008.92
2019-03-23T10:52:57.612Z,1008.96
2019-03-23T10:53:57.862Z,1009.00
2019-03-23T10:54:57.714Z,1008.96
2019-03-23T10:55:57.760Z,1008.98
2019-03-23T10:56:57.806Z,1008.97
2019-03-23T10:57:57.856Z,1008.99
2019-03-23T10:58:57.906Z,1008.98
2019-03-23T10:59:57.956Z,1009.01
2019-03-23T11:00:58.003Z,1009.01
2019-03-23T11:01:58.057Z,1009.00
2019-03-23T11:02:58.105Z,1008.98
2019-03-23T11:03:58.152Z,1008.97
2019-03-23T11:04:58.202Z,1008.96
2019-03-23T11:05:58.252Z,1009.02
2019-03-23T11:06:58.302Z,1009.02
2019-03-23T11:07:58.350Z,1009.04
2019-03-23T11:08:58.401Z,1009.08
2019-03-23T11:09:58.451Z,1009.08
2019-03-23T11:10:58.500Z,1009.03
2019-03-23T11:11:58.550Z,1009.03
2019-03-23T11:12:58.600Z,1009.03
2019-03-23T11:13:58.650Z,1009.05
2019-03-23T11:14:58.701Z,1009.04
2019-03-23T11:15:58.749Z,1009.10
2019-03-23T11:16:58.800Z,1009.14
2019-03-23T11:17:58.851Z,1009.13
2019-03-23T11:18:58.901Z,1009.09
2019-03-23T11:19:58.952Z,1009.15
2019-03-23T11:21:00.161Z,1009.14
2019-03-23T11:21:59.051Z,1009.19
2019-03-23T11:22:59.103Z,1009.21
2019-03-23T11:23:59.151Z,1009.20
2019-03-23T11:24:59.203Z,1009.19
2019-03-23T11:25:59.256Z,1009.22
2019-03-23T11:26:59.303Z,1009.17
2019-03-23T11:27:59.353Z,1009.15
2019-03-23T11:28:59.406Z,1009.12
2019-03-23T11:29:59.456Z,1009.15
2019-03-23T11:30:59.506Z,1009.18
2019-03-23T11:31:59.554Z,1009.15
2019-03-23T11:32:59.605Z,1009.12
2019-03-23T11:33:59.655Z,1009.13
2019-03-23T11:34:59.784Z,1009.15
2019-03-23T11:35:59.757Z,1009.17
2019-03-23T11:36:59.806Z,1009.13
2019-03-23T11:38:02.233Z,1009.11
2019-03-23T11:38:59.907Z,1009.12
2019-03-23T11:39:59.958Z,1009.16
2019-03-23T11:41:00.008Z,1009.21
2019-03-23T11:42:00.059Z,1009.20
2019-03-23T11:43:00.114Z,1009.15
2019-03-23T11:44:00.160Z,1009.18
2019-03-23T11:45:00.240Z,1009.13
2019-03-23T11:46:00.260Z,1009.13
2019-03-23T11:47:00.315Z,1009.16
2019-03-23T11:48:00.365Z,1009.14
2019-03-23T11:49:00.434Z,1009.13
2019-03-23T11:50:00.793Z,1009.12
2019-03-23T11:51:00.537Z,1009.11
2019-03-23T11:53:01.956Z,1009.07
2019-03-23T11:54:01.095Z,1009.08
2019-03-23T11:55:00.715Z,1009.03
2019-03-23T11:56:00.764Z,1009.04
2019-03-23T11:57:01.447Z,1009.04
2019-03-23T11:58:01.074Z,1009.06
2019-03-23T11:59:00.917Z,1009.02
2019-03-23T12:00:00.967Z,1009.01
2019-03-23T12:01:01.019Z,1009.03
2019-03-23T12:02:01.070Z,1008.98
2019-03-23T12:03:01.121Z,1008.97
2019-03-23T12:04:01.170Z,1009.00
2019-03-23T12:05:01.220Z,1009.01
2019-03-23T12:06:01.272Z,1009.06
2019-03-23T12:07:01.322Z,1009.05
2019-03-23T12:08:01.372Z,1009.06
2019-03-23T12:09:01.423Z,1009.01
2019-03-23T12:10:01.473Z,1009.03
2019-03-23T12:11:03.049Z,1009.03
2019-03-23T12:12:01.625Z,1009.08
2019-03-23T12:13:01.648Z,1009.04
2019-03-23T12:14:01.675Z,1008.98
2019-03-23T12:15:01.734Z,1009.01
2019-03-23T12:16:01.778Z,1009.01
2019-03-23T12:17:01.929Z,1009.01
2019-03-23T12:18:01.879Z,1009.01
2019-03-23T12:19:01.936Z,1008.96
2019-03-23T12:20:01.990Z,1008.95
2019-03-23T12:21:02.032Z,1008.97
2019-03-23T12:22:02.083Z,1008.96
2019-03-23T12:23:02.134Z,1008.95
2019-03-23T12:24:02.184Z,1008.94
2019-03-23T12:25:02.235Z,1008.96
2019-03-23T12:26:02.295Z,1008.95
2019-03-23T12:27:02.337Z,1008.93
2019-03-23T12:28:02.390Z,1008.92
2019-03-23T12:29:02.442Z,1008.92
2019-03-23T12:30:07.046Z,1008.95
2019-03-23T12:31:02.544Z,1008.98